Flight Track Log - Related Links

Times and Time Zones

All times are in EDT time to prevent confusion due to time zone crossing. See the UAL5900 flight status page for this flight to view local times or setup timezone preferences in your user account.

Time Position Orientation Groundspeed Altitude Reporting Facility
EDT Latitude Longitude Course Direction KTS MPH feet Rate Location/Type
Wed 07:55:34 PM 41.9833 -87.8500 143° Southeast 152 175 2,400  Level Chicago TRACON
Wed 07:56:34 PM 41.9500 -87.8167 143° Southeast 225 259 3,600 1,450 Climbing Chicago TRACON
Wed 07:57:34 PM 41.8833 -87.8000 169° South 270 311 5,300 2,350 Climbing Chicago TRACON
Wed 07:58:34 PM 41.8167 -87.8333 200° South 226 260 8,300 1,960 Climbing Chicago TRACON
Wed 08:00:56 PM 41.7100 -87.8042 168° South 259 298 11,900 1,471 Climbing Chicago Center
Wed 08:01:58 PM 41.6411 -87.8233 192° South 255 293 13,300 1,463 Climbing Chicago Center
Wed 08:02:59 PM 41.5617 -87.8608 199° South 252 290 14,900 1,623 Climbing Chicago Center
Wed 08:04:00 PM 41.4933 -87.8967 201° Southwest 261 300 16,600 1,279 Climbing Chicago Center
Wed 08:05:01 PM 41.4236 -87.9317 201° Southwest 264 304 17,500 1,122 Climbing Chicago Center
Wed 08:06:03 PM 41.3481 -87.9697 201° Southwest 281 323 18,900 1,415 Climbing Chicago Center
Wed 08:07:04 PM 41.2722 -88.0069 200° South 286 329 20,400 1,377 Climbing Chicago Center
Wed 08:08:05 PM 41.1967 -88.0464 201° Southwest 290 334 21,700 1,230 Climbing Chicago Center
Wed 08:09:06 PM 41.1167 -88.0856 200° South 302 348 22,900 1,073 Climbing Chicago Center
Wed 08:10:08 PM 41.0350 -88.1258 200° South 311 358 23,900 927 Climbing Chicago Center
Wed 08:11:09 PM 40.9528 -88.1675 201° Southwest 316 364 24,800 934 Climbing Chicago Center
Wed 08:12:10 PM 40.8669 -88.2097 200° South 328 377 25,800 934 Climbing Chicago Center
Wed 08:13:11 PM 40.7794 -88.2525 200° South 336 387 26,700 878 Climbing Chicago Center
Wed 08:14:13 PM 40.6919 -88.2972 201° Southwest 336 387 27,600 927 Climbing Chicago Center
Wed 08:15:14 PM 40.5822 -88.3503 200° South 347 399 28,600 836 Climbing Chicago Center
Wed 08:16:15 PM 40.4892 -88.3961 201° Southwest 355 409 29,300 683 Climbing Chicago Center
Wed 08:17:17 PM 40.3939 -88.4431 201° Southwest 362 417 30,000 341 Climbing Chicago Center
Wed 08:18:18 PM 40.2892 -88.4522 184° South 379 436 30,000  Level Chicago Center
Wed 08:19:19 PM 40.1775 -88.4406 175° South 388 447 30,000  Level Chicago Center
Wed 08:20:21 PM 40.0703 -88.4286 175° South 385 443 30,000  Level Chicago Center
Wed 08:20:39 PM 40.0500 -88.4244 171° South 386 444 30,000 -76 Level Kansas City Center
Wed 08:21:40 PM 39.9444 -88.4106 174° South 383 441 29,900 -397 Descending Kansas City Center
Wed 08:22:40 PM 39.8369 -88.3947 174° South 386 444 29,200 -446 Descending Kansas City Center
Wed 08:23:41 PM 39.7000 -88.3650 171° South 412 474 29,000 -96 Descending Kansas City Center
Wed 08:24:45 PM 39.5956 -88.3292 165° South 422 486 29,000  Level Kansas City Center
Wed 08:25:47 PM 39.4808 -88.2892 165° South 426 490 29,000  Level Kansas City Center
Wed 08:26:48 PM 39.3642 -88.2500 165° South 430 495 29,000  Level Kansas City Center
Wed 08:27:49 PM 39.2464 -88.2111 166° South 432 497 29,000  Level Kansas City Center
Wed 08:28:50 PM 39.1053 -88.1614 165° South 436 502 29,000  Level Kansas City Center
Wed 08:29:26 PM 39.0347 -88.1369 165° South 436 502 29,000  Level Indianapolis Center
Wed 08:30:27 PM 38.9175 -88.0975 165° South 435 501 29,000  Level Indianapolis Center
Wed 08:30:53 PM 38.8728 -88.0808 164° South 432 497 29,000  Level Kansas City Center
Wed 08:31:54 PM 38.7561 -88.0417 165° South 433 498 29,000  Level Kansas City Center
Wed 08:32:57 PM 38.6408 -88.0017 165° South 430 495 29,000  Level Kansas City Center
Wed 08:33:58 PM 38.5247 -87.9633 166° South 430 495 29,000  Level Kansas City Center
Wed 08:34:58 PM 38.4103 -87.9242 165° South 429 494 29,000  Level Kansas City Center
Wed 08:35:34 PM 38.3422 -87.9014 165° South 425 489 29,000  Level Indianapolis Center
Wed 08:36:35 PM 38.2281 -87.8633 165° South 424 488 29,000  Level Indianapolis Center
Wed 08:37:37 PM 38.0917 -87.8161 165° South 425 489 29,000  Level Indianapolis Center
Wed 08:38:38 PM 37.9856 -87.7425 151° Southeast 437 503 29,000  Level Indianapolis Center
Wed 08:39:40 PM 37.8833 -87.6608 148° Southeast 436 502 29,000 -244 Level Indianapolis Center
Wed 08:40:41 PM 37.7803 -87.5806 148° Southeast 436 502 28,500 -639 Descending Indianapolis Center
Wed 08:41:42 PM 37.6831 -87.5094 150° Southeast 433 498 27,700 -1,024 Descending Indianapolis Center
Wed 08:42:44 PM 37.5581 -87.4100 148° Southeast 450 518 26,400 -1,301 Descending Indianapolis Center
Wed 08:43:05 PM 37.5211 -87.3789 146° Southeast 451 519 25,900 -1,659 Descending Memphis Center
Wed 08:44:47 PM 37.3503 -87.2558 150° Southeast 427 491 23,000 -1,450 Descending Indianapolis Center
Wed 08:45:05 PM 37.3136 -87.2431 165° South 431 496 23,000  Level Memphis Center
Wed 08:45:44 PM 37.2464 -87.2250 168° South 400 460 23,000 -200 Level Memphis Center
Wed 08:46:05 PM 37.2044 -87.2136 168° South 409 471 22,800 -2,000 Descending Memphis Center
Wed 08:47:05 PM 37.0933 -87.1789 166° South 409 471 20,300 -2,206 Descending Memphis Center
Wed 08:48:21 PM 36.9547 -87.1403 167° South 401 461 17,800 -1,800 Descending Memphis Center
Wed 08:49:05 PM 36.8894 -87.1197 166° South 404 465 16,700 -1,788 Descending Memphis Center
Wed 08:50:05 PM 36.7864 -87.0822 164° South 390 449 14,700 -2,000 Descending Memphis Center
Wed 08:51:05 PM 36.6975 -87.0239 152° Southeast 375 432 12,700 -1,700 Descending Memphis Center
Wed 08:52:05 PM 36.6106 -86.9731 155° Southeast 356 410 11,300 -1,550 Descending Memphis Center
Wed 08:53:05 PM 36.5406 -86.9244 151° Southeast 311 358 9,600 -1,700 Descending Memphis Center
Wed 08:54:05 PM 36.4761 -86.8600 141° Southeast 282 325 7,900 -1,650 Descending Memphis Center
Wed 08:55:05 PM 36.4225 -86.8031 139° Southeast 256 295 6,300 -1,450 Descending Memphis Center
Wed 08:56:05 PM 36.3686 -86.7489 141° Southeast 251 289 5,000 -1,250 Descending Memphis Center
Wed 08:57:05 PM 36.3156 -86.7150 153° Southeast 227 261 3,800 -950 Descending Memphis Center
Wed 08:58:05 PM 36.2669 -86.6942 161° South 213 245 3,100 -850 Descending Memphis Center
Wed 08:59:05 PM 36.2186 -86.6808 167° South 199 229 2,100 -900 Descending Memphis Center
Wed 09:00:05 PM 36.1850 -86.6719 168° South 149 171 1,300 -600 Descending Memphis Center
Wed 09:01:05 PM 36.1517 -86.6736 182° South 124 143 900 -300 Descending Memphis Center
Wed 09:02:05 PM 36.1122 -86.6753 182° South 124 143 700 -200 Descending Memphis Center
Wed 09:04:00 PM 36.1167 -86.6667 North  Level FlightAware Approximate
Wed 09:11:00 PM 36.1245 -86.6782 North  Level Estimated
Wed 09:12:00 PM 36.1245 -86.6782 North  Level Estimated
Wed 09:13:00 PM 36.1245 -86.6782 North  Level Estimated
Wed 09:14:00 PM 36.1245 -86.6782 North  Level Estimated
Wed 09:15:00 PM 36.1245 -86.6782 North  Level Estimated
Wed 09:16:00 PM 36.1245 -86.6782 North  Level Estimated
Wed 09:17:00 PM 36.1245 -86.6782 North  Level Estimated
Wed 09:18:00 PM 36.1245 -86.6782 North  Level Estimated

Login

Don't have an account? Register now (free) for customized features, flight alerts, and more!